Time;durP1;ratioP1;P1;durP2;ratioP2;P2;SDS_P1;SDS_P2;PMS_P1;PMS_P2;Temp;Humidity;BMP_temperature;BMP_pressure;BME280_temperature;BME280_humidity;BME280_pressure;Samples;Min_cycle;Max_cycle;Signal;HPM_P1;HPM_P2
2024/01/02 00:00:20;;;;;;;0.00;0.00;;;7.30;99.90;;;;;;5053017;28;20649;-68
2024/01/02 00:02:46;;;;;;;0.15;0.15;;;7.30;99.90;;;;;;5052670;28;20213;-67
2024/01/02 00:05:11;;;;;;;0.00;0.00;;;7.30;99.90;;;;;;5053096;28;20758;-67
2024/01/02 00:07:37;;;;;;;0.00;0.00;;;7.30;99.90;;;;;;5052897;28;20679;-68
2024/01/02 00:10:03;;;;;;;0.00;0.00;;;7.30;99.90;;;;;;5052700;28;20226;-68
2024/01/02 00:12:28;;;;;;;0.00;0.00;;;7.30;99.90;;;;;;5052584;28;20223;-69
2024/01/02 00:14:54;;;;;;;0.00;0.00;;;7.40;99.90;;;;;;5052445;28;20265;-68
2024/01/02 00:17:19;;;;;;;0.00;0.00;;;7.40;99.90;;;;;;5052413;28;20194;-68
2024/01/02 00:19:45;;;;;;;0.08;0.08;;;7.40;99.90;;;;;;5052360;28;20184;-67
2024/01/02 00:22:10;;;;;;;0.00;0.00;;;7.40;99.90;;;;;;5051013;28;20174;-67
2024/01/02 00:24:36;;;;;;;0.00;0.00;;;7.40;99.90;;;;;;5052352;28;20178;-67
2024/01/02 00:27:02;;;;;;;0.00;0.00;;;7.40;99.90;;;;;;5052540;28;20177;-67
2024/01/02 00:29:28;;;;;;;0.00;0.00;;;7.40;99.90;;;;;;5052508;28;20186;-67
2024/01/02 00:31:53;;;;;;;0.00;0.00;;;7.40;99.90;;;;;;5052058;28;20649;-67
2024/01/02 00:34:19;;;;;;;0.00;0.00;;;7.40;99.90;;;;;;5052243;28;20541;-68
2024/01/02 00:36:44;;;;;;;0.00;0.00;;;7.40;99.90;;;;;;5052008;28;20647;-68
2024/01/02 00:39:10;;;;;;;0.00;0.00;;;7.40;99.90;;;;;;5050821;28;20205;-67
2024/01/02 00:41:36;;;;;;;0.00;0.00;;;7.40;99.90;;;;;;5051704;28;20231;-68
2024/01/02 00:44:01;;;;;;;0.00;0.00;;;7.40;99.90;;;;;;5052121;28;20698;-67
2024/01/02 00:46:27;;;;;;;0.00;0.00;;;7.50;99.90;;;;;;5051676;28;20185;-68
2024/01/02 00:48:52;;;;;;;0.00;0.00;;;7.40;99.90;;;;;;5051740;28;20236;-67
2024/01/02 00:51:18;;;;;;;0.00;0.00;;;7.50;99.90;;;;;;5051844;28;20552;-67
2024/01/02 00:53:43;;;;;;;0.00;0.00;;;7.50;99.90;;;;;;5052010;28;20276;-67
2024/01/02 00:56:09;;;;;;;0.00;0.00;;;7.50;99.90;;;;;;5051811;28;20178;-67
2024/01/02 00:58:35;;;;;;;0.00;0.00;;;7.50;99.90;;;;;;5050544;28;20545;-67
2024/01/02 01:01:00;;;;;;;0.00;0.00;;;7.50;99.90;;;;;;5051671;28;20644;-67
2024/01/02 01:03:26;;;;;;;0.00;0.00;;;7.50;99.90;;;;;;5050398;28;20191;-67
2024/01/02 01:05:51;;;;;;;0.00;0.00;;;7.50;99.90;;;;;;5051718;28;20177;-67
2024/01/02 01:08:17;;;;;;;0.00;0.00;;;7.50;99.90;;;;;;5051257;28;20185;-68
2024/01/02 01:10:43;;;;;;;0.00;0.00;;;7.50;99.90;;;;;;5051506;28;20513;-66
2024/01/02 01:13:08;;;;;;;0.00;0.00;;;7.50;99.90;;;;;;5051533;28;20220;-66
2024/01/02 01:15:34;;;;;;;0.03;0.03;;;7.50;99.90;;;;;;5051349;28;20762;-67
2024/01/02 01:18:00;;;;;;;0.00;0.00;;;7.50;99.90;;;;;;5049446;28;20200;-68
2024/01/02 01:20:25;;;;;;;0.00;0.00;;;7.50;99.90;;;;;;5051487;28;20181;-68
2024/01/02 01:22:51;;;;;;;0.00;0.00;;;7.60;99.90;;;;;;5051352;28;20269;-67
2024/01/02 01:25:16;;;;;;;0.00;0.00;;;7.60;99.90;;;;;;5051146;28;20182;-67
2024/01/02 01:27:42;;;;;;;0.00;0.00;;;7.60;99.90;;;;;;5051303;28;20188;-67
2024/01/02 01:30:08;;;;;;;0.00;0.00;;;7.60;99.90;;;;;;5050947;28;20643;-67
2024/01/02 01:32:34;;;;;;;0.00;0.00;;;7.60;99.90;;;;;;5051286;28;20221;-67
2024/01/02 01:34:59;;;;;;;0.00;0.00;;;7.60;99.90;;;;;;5051257;28;20181;-67
2024/01/02 01:37:25;;;;;;;0.08;0.08;;;7.60;99.90;;;;;;5050988;28;20177;-66
2024/01/02 01:39:51;;;;;;;0.00;0.00;;;7.60;99.90;;;;;;5051023;28;20213;-67
2024/01/02 01:42:17;;;;;;;0.00;0.00;;;7.60;99.90;;;;;;5049647;28;20197;-67
2024/01/02 01:44:42;;;;;;;0.00;0.00;;;7.60;99.90;;;;;;5051109;28;20165;-66
2024/01/02 01:47:08;;;;;;;0.00;0.00;;;7.60;99.90;;;;;;5051026;28;20177;-66
2024/01/02 01:49:34;;;;;;;0.00;0.00;;;7.60;99.90;;;;;;5046095;28;20243;-67
2024/01/02 01:52:00;;;;;;;0.00;0.00;;;7.60;99.90;;;;;;5049205;28;20209;-66
2024/01/02 01:54:27;;;;;;;0.10;0.10;;;7.60;99.90;;;;;;5049586;28;20195;-67
2024/01/02 01:56:53;;;;;;;0.00;0.00;;;7.60;99.90;;;;;;5050792;28;20516;-66
2024/01/02 01:59:18;;;;;;;0.00;0.00;;;7.60;99.90;;;;;;5051090;28;20183;-66
2024/01/02 02:01:45;;;;;;;0.00;0.00;;;7.60;99.90;;;;;;5050776;28;20209;-66
2024/01/02 02:04:12;;;;;;;0.00;0.00;;;7.60;99.90;;;;;;5050642;28;20212;-67
2024/01/02 02:06:37;;;;;;;0.00;0.00;;;7.60;99.90;;;;;;5050663;28;20177;-67
2024/01/02 02:09:03;;;;;;;0.00;0.00;;;7.60;99.90;;;;;;5049629;28;20188;-67
2024/01/02 02:11:30;;;;;;;0.00;0.00;;;7.50;99.90;;;;;;5050769;28;20204;-67
2024/01/02 02:13:55;;;;;;;0.00;0.00;;;7.50;99.90;;;;;;5050675;28;20220;-67
2024/01/02 02:16:21;;;;;;;0.00;0.00;;;7.50;99.90;;;;;;5050704;28;20224;-66
2024/01/02 02:18:46;;;;;;;0.00;0.00;;;7.50;99.90;;;;;;5050443;28;20641;-66
2024/01/02 02:21:12;;;;;;;0.00;0.00;;;7.40;99.90;;;;;;5050855;28;20184;-66
2024/01/02 02:23:37;;;;;;;0.00;0.00;;;7.40;99.90;;;;;;5050643;28;20188;-67
2024/01/02 02:26:03;;;;;;;0.00;0.00;;;7.40;99.90;;;;;;5050053;28;20185;-66
2024/01/02 02:28:28;;;;;;;0.00;0.00;;;7.40;99.90;;;;;;5050557;28;20192;-65
2024/01/02 02:30:54;;;;;;;0.00;0.00;;;7.40;99.90;;;;;;5050283;28;20173;-67
2024/01/02 02:33:19;;;;;;;0.00;0.00;;;7.40;99.90;;;;;;5049109;28;20221;-66
2024/01/02 02:35:45;;;;;;;0.00;0.00;;;7.40;99.90;;;;;;5050104;28;20637;-66
2024/01/02 02:38:10;;;;;;;0.00;0.00;;;7.40;99.90;;;;;;5050238;28;20193;-66
2024/01/02 02:40:36;;;;;;;0.10;0.10;;;7.40;99.90;;;;;;5049711;28;20217;-66
2024/01/02 02:43:02;;;;;;;0.00;0.00;;;7.40;99.90;;;;;;5050565;28;20201;-66
2024/01/02 02:45:27;;;;;;;0.00;0.00;;;7.30;99.90;;;;;;5050203;28;20591;-65
2024/01/02 02:47:53;;;;;;;0.00;0.00;;;7.30;99.90;;;;;;5050110;28;20178;-66
2024/01/02 02:50:18;;;;;;;0.00;0.00;;;7.30;99.90;;;;;;5049760;28;20649;-65
2024/01/02 02:52:44;;;;;;;0.00;0.00;;;7.30;99.90;;;;;;5050467;28;20220;-66
2024/01/02 02:55:10;;;;;;;0.00;0.00;;;7.30;99.90;;;;;;5050536;28;20696;-66
2024/01/02 02:57:35;;;;;;;0.00;0.00;;;7.30;99.90;;;;;;5050332;28;20213;-65
2024/01/02 03:00:01;;;;;;;0.00;0.00;;;7.30;99.90;;;;;;5048913;28;20177;-66
2024/01/02 03:02:27;;;;;;;0.00;0.00;;;7.30;99.90;;;;;;5050004;28;20216;-66
2024/01/02 03:04:52;;;;;;;0.00;0.00;;;7.20;99.90;;;;;;5048664;28;20613;-65
2024/01/02 03:07:19;;;;;;;0.00;0.00;;;7.20;99.90;;;;;;5050054;28;20289;-65
2024/01/02 03:09:45;;;;;;;0.00;0.00;;;7.20;99.90;;;;;;5051370;28;20182;-65
2024/01/02 03:12:15;;;;;;;0.00;0.00;;;7.20;99.90;;;;;;5053638;28;20231;-65
2024/01/02 03:14:40;;;;;;;0.00;0.00;;;7.20;99.90;;;;;;5053852;28;20178;-66
2024/01/02 03:17:06;;;;;;;0.00;0.00;;;7.10;99.90;;;;;;5053948;28;20723;-65
2024/01/02 03:19:31;;;;;;;0.00;0.00;;;7.10;99.90;;;;;;5053090;28;20496;-65
2024/01/02 03:21:57;;;;;;;0.00;0.00;;;7.10;99.90;;;;;;5053614;28;20189;-65
2024/01/02 03:24:22;;;;;;;0.00;0.00;;;7.10;99.90;;;;;;5053292;28;20189;-64
2024/01/02 03:26:48;;;;;;;0.00;0.00;;;7.10;99.90;;;;;;5053673;28;20182;-65
2024/01/02 03:29:16;;;;;;;0.00;0.00;;;7.10;99.90;;;;;;5053761;28;20185;-64
2024/01/02 03:31:43;;;;;;;0.00;0.00;;;7.10;99.90;;;;;;5053705;28;20288;-65
2024/01/02 03:34:08;;;;;;;0.00;0.00;;;7.10;99.90;;;;;;5053462;28;20194;-66
2024/01/02 03:36:34;;;;;;;0.00;0.00;;;7.10;99.90;;;;;;5053279;28;20190;-66
2024/01/02 03:38:59;;;;;;;0.00;0.00;;;7.10;99.90;;;;;;5052244;28;20319;-66
2024/01/02 03:41:25;;;;;;;0.00;0.00;;;7.10;99.90;;;;;;5053215;28;20228;-66
2024/01/02 03:43:50;;;;;;;0.00;0.00;;;7.00;99.90;;;;;;5053416;28;20227;-66
2024/01/02 03:46:16;;;;;;;0.00;0.00;;;7.00;99.90;;;;;;5053230;28;20272;-66
2024/01/02 03:48:41;;;;;;;0.00;0.00;;;7.10;99.90;;;;;;5052783;28;20204;-66
2024/01/02 03:51:07;;;;;;;0.00;0.00;;;7.00;99.90;;;;;;5053112;28;20185;-65
2024/01/02 03:53:32;;;;;;;0.00;0.00;;;7.00;99.90;;;;;;5053226;28;20596;-66
2024/01/02 03:55:59;;;;;;;0.00;0.00;;;7.00;99.90;;;;;;5052965;28;20276;-65
2024/01/02 03:58:24;;;;;;;0.00;0.00;;;7.00;99.90;;;;;;5049378;28;20669;-66
2024/01/02 04:00:54;;;;;;;0.00;0.00;;;6.90;99.90;;;;;;5052545;28;20188;-66
2024/01/02 04:03:20;;;;;;;0.00;0.00;;;6.90;99.90;;;;;;5052355;28;20188;-65
2024/01/02 04:05:45;;;;;;;0.00;0.00;;;6.90;99.90;;;;;;5052711;28;20193;-66
2024/01/02 04:08:11;;;;;;;0.00;0.00;;;6.90;99.90;;;;;;5052613;28;20208;-66
2024/01/02 04:10:39;;;;;;;0.00;0.00;;;6.90;99.90;;;;;;5052218;28;20265;-66
2024/01/02 04:13:04;;;;;;;0.00;0.00;;;6.90;99.90;;;;;;5052316;28;20217;-66
2024/01/02 04:15:30;;;;;;;0.00;0.00;;;6.80;99.90;;;;;;5052293;28;20181;-66
2024/01/02 04:17:56;;;;;;;0.00;0.00;;;6.80;99.90;;;;;;5052209;28;20188;-64
2024/01/02 04:20:21;;;;;;;0.00;0.00;;;6.80;99.90;;;;;;5052227;28;20205;-65
2024/01/02 04:22:47;;;;;;;0.00;0.00;;;6.80;99.90;;;;;;5051209;28;20196;-65
2024/01/02 04:25:12;;;;;;;0.00;0.00;;;6.80;99.90;;;;;;5051278;28;20571;-65
2024/01/02 04:27:38;;;;;;;0.00;0.00;;;6.80;99.90;;;;;;5052320;28;20194;-67
2024/01/02 04:30:04;;;;;;;0.00;0.00;;;6.80;99.90;;;;;;5051723;28;20234;-67
2024/01/02 04:32:29;;;;;;;0.00;0.00;;;6.80;99.90;;;;;;5051659;28;20578;-67
2024/01/02 04:34:55;;;;;;;0.00;0.00;;;6.80;99.90;;;;;;5051351;28;20209;-63
2024/01/02 04:37:20;;;;;;;0.00;0.00;;;6.80;99.90;;;;;;5051790;28;20541;-67
2024/01/02 04:39:46;;;;;;;0.00;0.00;;;6.80;99.90;;;;;;5047878;28;20205;-65
2024/01/02 04:42:11;;;;;;;0.00;0.00;;;6.80;99.90;;;;;;5052286;28;20188;-66
2024/01/02 04:44:37;;;;;;;0.00;0.00;;;6.80;99.90;;;;;;5051376;28;20608;-66
2024/01/02 04:47:02;;;;;;;0.00;0.00;;;6.80;99.90;;;;;;5050205;28;20265;-66
2024/01/02 04:49:28;;;;;;;0.00;0.00;;;6.80;99.90;;;;;;5051232;28;20204;-67
2024/01/02 04:51:54;;;;;;;0.00;0.00;;;6.70;99.90;;;;;;5052372;28;20656;-68
2024/01/02 04:54:19;;;;;;;0.00;0.00;;;6.80;99.90;;;;;;5051613;28;20173;-67
2024/01/02 04:56:45;;;;;;;0.00;0.00;;;6.80;99.90;;;;;;5052323;28;20185;-70
2024/01/02 04:59:10;;;;;;;0.00;0.00;;;6.80;99.90;;;;;;5051580;28;20200;-68
2024/01/02 05:01:37;;;;;;;0.00;0.00;;;6.80;99.90;;;;;;5053050;28;20197;-70
2024/01/02 05:04:03;;;;;;;0.00;0.00;;;6.80;99.90;;;;;;5043217;28;20645;-69
2024/01/02 05:06:29;;;;;;;0.00;0.00;;;6.80;99.90;;;;;;5051777;28;20200;-68
2024/01/02 05:08:55;;;;;;;0.00;0.00;;;6.80;99.90;;;;;;5052708;28;20185;-68
2024/01/02 05:11:20;;;;;;;0.00;0.00;;;6.80;99.90;;;;;;5052786;28;20256;-68
2024/01/02 05:13:46;;;;;;;0.00;0.00;;;6.80;99.90;;;;;;5051605;28;20272;-69
2024/01/02 05:16:12;;;;;;;0.00;0.00;;;6.80;99.90;;;;;;5051710;28;20264;-68
2024/01/02 05:18:37;;;;;;;0.00;0.00;;;6.90;99.90;;;;;;5053060;28;20177;-70
2024/01/02 05:21:03;;;;;;;0.00;0.00;;;6.90;99.90;;;;;;5052664;28;20712;-69
2024/01/02 05:23:28;;;;;;;0.00;0.00;;;6.90;99.90;;;;;;5052357;28;20520;-69
2024/01/02 05:25:55;;;;;;;0.00;0.00;;;6.90;99.90;;;;;;5051554;28;20177;-69
2024/01/02 05:28:20;;;;;;;0.00;0.00;;;6.90;99.90;;;;;;5051298;28;20220;-68
2024/01/02 05:30:46;;;;;;;0.00;0.00;;;6.90;99.90;;;;;;5052048;28;20205;-69
2024/01/02 05:33:11;;;;;;;0.00;0.00;;;6.90;99.90;;;;;;5051899;28;20221;-68
2024/01/02 05:35:37;;;;;;;0.00;0.00;;;6.90;99.90;;;;;;5052505;28;20724;-67
2024/01/02 05:38:03;;;;;;;0.00;0.00;;;6.90;99.90;;;;;;5052451;28;20238;-69
2024/01/02 05:40:28;;;;;;;0.00;0.00;;;6.90;99.90;;;;;;5053528;28;20221;-69
2024/01/02 05:42:54;;;;;;;0.00;0.00;;;7.00;99.90;;;;;;5051947;28;20525;-69
2024/01/02 05:45:20;;;;;;;0.00;0.00;;;7.00;99.90;;;;;;5051764;28;20529;-69
2024/01/02 05:47:46;;;;;;;0.00;0.00;;;7.00;99.90;;;;;;5051607;28;20185;-68
2024/01/02 05:50:12;;;;;;;0.00;0.00;;;7.00;99.90;;;;;;5051676;28;20180;-69
2024/01/02 05:52:39;;;;;;;0.00;0.00;;;7.10;99.90;;;;;;5051400;28;20213;-68
2024/01/02 05:55:04;;;;;;;0.00;0.00;;;7.10;99.90;;;;;;5051664;28;20232;-69
2024/01/02 05:57:30;;;;;;;0.00;0.00;;;7.10;99.90;;;;;;5051461;28;20173;-69
2024/01/02 05:59:55;;;;;;;0.00;0.00;;;7.10;99.90;;;;;;5051387;28;20191;-69
2024/01/02 06:02:21;;;;;;;0.00;0.00;;;7.10;99.90;;;;;;5051490;28;20200;-69
2024/01/02 06:04:46;;;;;;;0.00;0.00;;;7.10;99.90;;;;;;5050127;28;20177;-68
2024/01/02 06:07:12;;;;;;;0.00;0.00;;;7.20;99.90;;;;;;5051510;28;20223;-70
2024/01/02 06:09:37;;;;;;;0.00;0.00;;;7.20;99.90;;;;;;5051381;28;20173;-68
2024/01/02 06:12:03;;;;;;;0.00;0.00;;;7.20;99.90;;;;;;5051142;28;20205;-69
2024/01/02 06:14:29;;;;;;;0.00;0.00;;;7.20;99.90;;;;;;5051223;28;20651;-69
2024/01/02 06:16:54;;;;;;;0.00;0.00;;;7.30;99.90;;;;;;5050136;28;20182;-70
2024/01/02 06:19:20;;;;;;;0.00;0.00;;;7.30;99.90;;;;;;5051312;28;20190;-70
2024/01/02 06:21:45;;;;;;;0.00;0.00;;;7.40;99.90;;;;;;5051210;28;20182;-69
2024/01/02 06:24:11;;;;;;;0.00;0.00;;;7.40;99.90;;;;;;5051131;28;20173;-69
2024/01/02 06:26:36;;;;;;;0.00;0.00;;;7.40;99.90;;;;;;5051468;28;20502;-69
2024/01/02 06:29:02;;;;;;;0.00;0.00;;;7.50;99.90;;;;;;5051194;28;20544;-68
2024/01/02 06:31:27;;;;;;;0.00;0.00;;;7.60;99.90;;;;;;5050961;28;20185;-69
2024/01/02 06:33:53;;;;;;;0.00;0.00;;;7.60;99.90;;;;;;5051154;28;20560;-69
2024/01/02 06:36:19;;;;;;;0.00;0.00;;;7.60;99.90;;;;;;5051241;28;20659;-69
2024/01/02 06:38:44;;;;;;;0.00;0.00;;;7.70;99.90;;;;;;5051076;28;20181;-69
2024/01/02 06:41:10;;;;;;;0.00;0.00;;;7.70;99.90;;;;;;5050927;28;20293;-68
2024/01/02 06:43:35;;;;;;;0.00;0.00;;;7.80;99.90;;;;;;5051045;28;20181;-67
2024/01/02 06:46:02;;;;;;;0.00;0.00;;;7.80;99.90;;;;;;5054362;28;20271;-68
2024/01/02 06:48:28;;;;;;;0.00;0.00;;;7.90;99.90;;;;;;5054801;28;20177;-69
2024/01/02 06:50:54;;;;;;;0.00;0.00;;;7.90;99.90;;;;;;5054956;28;20181;-69
2024/01/02 06:53:20;;;;;;;0.00;0.00;;;8.00;99.90;;;;;;5055015;28;20260;-69
2024/01/02 06:55:45;;;;;;;0.00;0.00;;;8.00;99.90;;;;;;5054659;28;20716;-70
2024/01/02 06:58:11;;;;;;;0.00;0.00;;;8.00;99.90;;;;;;5054816;28;20573;-70
2024/01/02 07:00:36;;;;;;;0.00;0.00;;;8.10;99.90;;;;;;5054792;28;20594;-70
2024/01/02 07:03:02;;;;;;;0.00;0.00;;;8.10;99.90;;;;;;5054657;28;20173;-70
2024/01/02 07:05:28;;;;;;;0.00;0.00;;;8.10;99.90;;;;;;5054691;28;20538;-70
2024/01/02 07:07:53;;;;;;;0.00;0.00;;;8.20;99.90;;;;;;5054562;28;20173;-70
2024/01/02 07:10:19;;;;;;;0.00;0.00;;;8.20;99.90;;;;;;5053198;28;20672;-70
2024/01/02 07:12:45;;;;;;;0.00;0.00;;;8.30;99.90;;;;;;5054320;28;20327;-69
2024/01/02 07:15:10;;;;;;;0.00;0.00;;;8.30;99.90;;;;;;5054669;28;20184;-72
2024/01/02 07:17:36;;;;;;;0.00;0.00;;;8.40;99.90;;;;;;5054457;28;20188;-71
2024/01/02 07:20:02;;;;;;;0.00;0.00;;;8.40;99.90;;;;;;5054308;28;20181;-71
2024/01/02 07:22:28;;;;;;;0.00;0.00;;;8.40;99.90;;;;;;5053265;28;20245;-71
2024/01/02 07:24:53;;;;;;;0.00;0.00;;;8.40;99.90;;;;;;5054377;28;20178;-71
2024/01/02 07:27:19;;;;;;;0.00;0.00;;;8.40;99.90;;;;;;5054140;28;20545;-70
2024/01/02 07:29:45;;;;;;;0.00;0.00;;;8.40;99.90;;;;;;5054169;28;20700;-70
2024/01/02 07:32:10;;;;;;;0.00;0.00;;;8.40;99.90;;;;;;5054207;28;20296;-70
2024/01/02 07:34:36;;;;;;;0.00;0.00;;;8.50;99.90;;;;;;5054153;28;20208;-69
2024/01/02 07:37:01;;;;;;;0.00;0.00;;;8.50;99.90;;;;;;5053871;28;20204;-70
2024/01/02 07:39:27;;;;;;;0.00;0.00;;;8.60;99.90;;;;;;5054061;28;20181;-70
2024/01/02 07:41:52;;;;;;;0.00;0.00;;;8.60;99.90;;;;;;5053639;28;20271;-69
2024/01/02 07:44:18;;;;;;;0.00;0.00;;;8.60;99.90;;;;;;5054007;28;20185;-69
2024/01/02 07:46:44;;;;;;;0.00;0.00;;;8.60;99.90;;;;;;5053824;28;20173;-70
2024/01/02 07:49:10;;;;;;;0.00;0.00;;;8.60;99.90;;;;;;5053749;28;20188;-70
2024/01/02 07:51:36;;;;;;;0.00;0.00;;;8.60;99.90;;;;;;5053883;28;20209;-69
2024/01/02 07:54:01;;;;;;;0.00;0.00;;;8.60;99.90;;;;;;5053508;28;20212;-69
2024/01/02 07:56:28;;;;;;;0.00;0.00;;;8.60;99.90;;;;;;5052363;28;20546;-69
2024/01/02 07:58:54;;;;;;;0.00;0.00;;;8.60;99.90;;;;;;5053877;28;20184;-70
2024/01/02 08:01:20;;;;;;;0.00;0.00;;;8.60;99.90;;;;;;5053593;28;20184;-70
2024/01/02 08:03:46;;;;;;;0.00;0.00;;;8.60;99.90;;;;;;5052321;28;20178;-70
2024/01/02 08:06:11;;;;;;;0.00;0.00;;;8.60;99.90;;;;;;5053722;28;20197;-68
2024/01/02 08:08:37;;;;;;;0.00;0.00;;;8.50;99.90;;;;;;5053383;28;20664;-68
2024/01/02 08:11:04;;;;;;;0.00;0.00;;;8.50;99.90;;;;;;5053249;28;20173;-69
2024/01/02 08:13:29;;;;;;;0.00;0.00;;;8.50;99.90;;;;;;5053167;28;20215;-69
2024/01/02 08:15:55;;;;;;;0.00;0.00;;;8.50;99.90;;;;;;5053282;28;20173;-68
2024/01/02 08:18:21;;;;;;;0.00;0.00;;;8.60;99.90;;;;;;5053250;28;20177;-69
2024/01/02 08:20:46;;;;;;;0.00;0.00;;;8.50;99.90;;;;;;5053282;28;20166;-68
2024/01/02 08:23:12;;;;;;;0.00;0.00;;;8.50;99.90;;;;;;5053141;28;20668;-69
2024/01/02 08:25:39;;;;;;;0.00;0.00;;;8.50;99.90;;;;;;5053281;28;20533;-68
2024/01/02 08:28:06;;;;;;;0.00;0.00;;;8.50;99.90;;;;;;5053212;28;20177;-70
2024/01/02 08:30:32;;;;;;;0.00;0.00;;;8.60;99.90;;;;;;5053046;28;20618;-69
2024/01/02 08:32:58;;;;;;;0.10;0.10;;;8.60;99.90;;;;;;5052949;28;20213;-69
2024/01/02 08:35:23;;;;;;;0.00;0.00;;;8.60;99.90;;;;;;5052914;28;20170;-68
2024/01/02 08:37:49;;;;;;;0.00;0.00;;;8.70;99.90;;;;;;5052883;28;20185;-68
2024/01/02 08:40:15;;;;;;;0.00;0.00;;;8.70;99.90;;;;;;5052723;28;20308;-69
2024/01/02 08:42:41;;;;;;;0.00;0.00;;;8.70;99.90;;;;;;5051438;28;20216;-71
2024/01/02 08:45:10;;;;;;;0.00;0.00;;;8.70;99.90;;;;;;5052726;28;20667;-71
2024/01/02 08:47:40;;;;;;;0.00;0.00;;;8.80;99.90;;;;;;5052716;28;20264;-71
2024/01/02 08:50:07;;;;;;;0.00;0.00;;;8.80;99.90;;;;;;5052708;28;20242;-71
2024/01/02 08:52:35;;;;;;;0.00;0.00;;;8.80;99.90;;;;;;5052676;28;20212;-70
2024/01/02 08:55:03;;;;;;;0.00;0.00;;;8.80;99.90;;;;;;5052397;28;20188;-70
2024/01/02 08:57:30;;;;;;;0.00;0.00;;;8.80;99.90;;;;;;5051328;28;20238;-71
2024/01/02 08:59:56;;;;;;;0.00;0.00;;;8.80;99.90;;;;;;5052451;28;20264;-71
2024/01/02 09:02:21;;;;;;;0.00;0.00;;;8.90;99.90;;;;;;5052383;28;20256;-72
2024/01/02 09:04:47;;;;;;;0.00;0.00;;;8.90;99.90;;;;;;5052409;28;20264;-72
2024/01/02 09:07:12;;;;;;;0.00;0.00;;;9.00;99.90;;;;;;5051938;28;20633;-70
2024/01/02 09:09:38;;;;;;;0.00;0.00;;;9.00;99.90;;;;;;5052317;28;20177;-72
2024/01/02 09:12:06;;;;;;;0.00;0.00;;;9.00;99.90;;;;;;5050741;28;20216;-72
2024/01/02 09:14:35;;;;;;;0.00;0.00;;;9.00;99.90;;;;;;5052112;28;20186;-72
2024/01/02 09:17:00;;;;;;;0.00;0.00;;;9.00;99.90;;;;;;5051911;28;20585;-72
2024/01/02 09:19:26;;;;;;;0.00;0.00;;;9.10;99.90;;;;;;5052068;28;20188;-72
2024/01/02 09:21:51;;;;;;;0.00;0.00;;;9.10;99.90;;;;;;5051931;28;20181;-72
2024/01/02 09:24:18;;;;;;;0.00;0.00;;;9.10;99.90;;;;;;5050597;28;20272;-72
2024/01/02 09:26:45;;;;;;;0.00;0.00;;;9.20;99.90;;;;;;5051785;28;20165;-72
2024/01/02 09:29:11;;;;;;;0.00;0.00;;;9.20;99.90;;;;;;5051854;28;20633;-72
2024/01/02 09:31:39;;;;;;;0.00;0.00;;;9.30;99.90;;;;;;5051534;28;20176;-70
2024/01/02 09:34:05;;;;;;;0.00;0.00;;;9.30;99.90;;;;;;5051881;28;20178;-74
2024/01/02 09:36:30;;;;;;;0.00;0.00;;;9.40;99.90;;;;;;5051780;28;20220;-73
2024/01/02 09:38:57;;;;;;;0.00;0.00;;;9.40;99.90;;;;;;5051715;28;20185;-73
2024/01/02 09:41:45;;;;;;;0.00;0.00;;;9.40;99.90;;;;;;5050093;28;20223;-73
2024/01/02 09:44:29;;;;;;;0.00;0.00;;;9.50;99.90;;;;;;5051395;28;20209;-74
2024/01/02 09:47:25;;;;;;;0.00;0.00;;;9.50;99.90;;;;;;5051502;28;20227;-74
2024/01/02 09:50:01;;;;;;;0.00;0.00;;;9.50;99.90;;;;;;5051399;28;20633;-75
2024/01/02 09:53:09;;;;;;;0.00;0.00;;;9.50;99.90;;;;;;5051449;28;20215;-73
2024/01/02 09:55:52;;;;;;;0.00;0.00;;;9.50;99.90;;;;;;5051718;28;20189;-74
2024/01/02 09:58:32;;;;;;;0.00;0.00;;;9.60;99.90;;;;;;5051539;28;20173;-73
2024/01/02 10:01:18;;;;;;;0.00;0.00;;;9.60;99.90;;;;;;5049982;28;20235;-74
2024/01/02 10:04:04;;;;;;;0.00;0.00;;;9.60;99.90;;;;;;5051331;28;20180;-74
2024/01/02 10:06:59;;;;;;;0.00;0.00;;;9.60;99.90;;;;;;5051394;28;20169;-74
2024/01/02 10:09:41;;;;;;;0.00;0.00;;;9.70;99.90;;;;;;5051387;28;20188;-75
2024/01/02 10:12:20;;;;;;;0.00;0.00;;;9.70;99.90;;;;;;5051199;28;20201;-74
2024/01/02 10:15:07;;;;;;;0.00;0.00;;;9.70;99.90;;;;;;5051232;28;20205;-75
2024/01/02 10:17:58;;;;;;;0.00;0.00;;;9.80;99.90;;;;;;5051283;28;20165;-74
2024/01/02 10:20:42;;;;;;;0.00;0.00;;;9.80;99.90;;;;;;5050267;28;20683;-73
2024/01/02 10:23:26;;;;;;;0.00;0.00;;;9.70;99.90;;;;;;5051124;28;20181;-73
2024/01/02 10:25:57;;;;;;;0.00;0.00;;;9.80;99.90;;;;;;5051072;28;20204;-74
2024/01/02 10:28:27;;;;;;;0.00;0.00;;;9.80;99.90;;;;;;5049806;28;20480;-75
2024/01/02 10:31:19;;;;;;;0.00;0.00;;;9.80;99.90;;;;;;5049779;28;20180;-74
2024/01/02 10:34:10;;;;;;;0.00;0.00;;;9.80;99.90;;;;;;5051041;28;20213;-75
2024/01/02 10:36:40;;;;;;;0.00;0.00;;;9.80;99.90;;;;;;5051021;28;20180;-74
2024/01/02 10:39:16;;;;;;;0.00;0.00;;;9.80;99.90;;;;;;5050925;28;20182;-74
2024/01/02 10:41:59;;;;;;;0.00;0.00;;;9.90;99.90;;;;;;5049355;28;20342;-73
2024/01/02 10:44:36;;;;;;;0.00;0.00;;;9.90;99.90;;;;;;5051077;28;20173;-73
2024/01/02 10:47:41;;;;;;;0.00;0.00;;;9.90;99.90;;;;;;5050762;28;20181;-74
2024/01/02 10:50:14;;;;;;;0.00;0.00;;;9.90;99.90;;;;;;5044352;28;20703;-73
2024/01/02 10:53:23;;;;;;;0.00;0.00;;;10.00;99.90;;;;;;5050588;28;20776;-75
2024/01/02 10:55:54;;;;;;;0.00;0.00;;;10.00;99.90;;;;;;5044949;28;20193;-75
2024/01/02 10:58:23;;;;;;;0.00;0.00;;;10.10;99.90;;;;;;5050743;28;20212;-74
2024/01/02 11:01:06;;;;;;;0.00;0.00;;;10.10;99.90;;;;;;5050807;28;20178;-73
2024/01/02 11:03:52;;;;;;;0.00;0.00;;;10.10;99.90;;;;;;5049568;28;20177;-73
2024/01/02 11:06:34;;;;;;;0.00;0.00;;;10.20;99.90;;;;;;5050850;28;20205;-73
2024/01/02 11:09:18;;;;;;;0.00;0.00;;;10.20;99.90;;;;;;5050551;28;20922;-72
2024/01/02 11:11:50;;;;;;;0.00;0.00;;;10.20;99.90;;;;;;5049587;28;20541;-70
2024/01/02 11:14:18;;;;;;;0.00;0.00;;;10.20;99.90;;;;;;5050668;28;20344;-71
2024/01/02 11:16:47;;;;;;;0.00;0.00;;;10.20;99.90;;;;;;5050718;28;20272;-71
2024/01/02 11:19:15;;;;;;;0.00;0.00;;;10.20;99.90;;;;;;5050699;28;20257;-70
2024/01/02 11:21:49;;;;;;;0.00;0.00;;;10.20;99.90;;;;;;5050324;28;20181;-70
2024/01/02 11:24:21;;;;;;;0.00;0.00;;;10.20;99.90;;;;;;5050664;28;20181;-70
2024/01/02 11:26:49;;;;;;;0.00;0.00;;;10.20;99.90;;;;;;5050620;28;20543;-71
2024/01/02 11:29:18;;;;;;;0.00;0.00;;;10.30;99.90;;;;;;5049424;28;20208;-70
2024/01/02 11:31:46;;;;;;;0.00;0.00;;;10.30;99.90;;;;;;5052903;28;20259;-70
2024/01/02 11:34:36;;;;;;;0.00;0.00;;;10.30;99.90;;;;;;5054101;28;20212;-70
2024/01/02 11:37:16;;;;;;;0.00;0.00;;;10.30;99.90;;;;;;5053795;28;20189;-69
2024/01/02 11:39:51;;;;;;;0.00;0.00;;;10.30;99.90;;;;;;5053598;28;20260;-68
2024/01/02 11:42:52;;;;;;;0.00;0.00;;;10.30;99.90;;;;;;5053995;28;20195;-69
2024/01/02 11:45:22;;;;;;;0.00;0.00;;;10.30;99.90;;;;;;5053911;28;20177;-70
2024/01/02 11:48:01;;;;;;;0.00;0.00;;;10.30;99.90;;;;;;5053849;28;20193;-71
2024/01/02 11:50:45;;;;;;;0.00;0.00;;;10.30;99.90;;;;;;5053997;28;20200;-70
2024/01/02 11:53:47;;;;;;;0.00;0.00;;;10.30;99.90;;;;;;5053728;28;20232;-70
2024/01/02 11:56:13;;;;;;;0.00;0.00;;;10.30;99.90;;;;;;5053649;28;20161;-70
2024/01/02 11:59:03;;;;;;;0.00;0.00;;;10.30;99.90;;;;;;5053419;28;20645;-70
2024/01/02 12:02:02;;;;;;;0.00;0.00;;;10.30;99.90;;;;;;5053641;28;20185;-70
2024/01/02 12:05:05;;;;;;;0.00;0.00;;;10.30;99.90;;;;;;5053654;28;20268;-70
2024/01/02 12:07:37;;;;;;;0.00;0.00;;;10.30;99.90;;;;;;5053520;28;20245;-69
2024/01/02 12:10:04;;;;;;;0.00;0.00;;;10.30;99.90;;;;;;5053341;28;20202;-70
2024/01/02 12:12:48;;;;;;;0.00;0.00;;;10.30;99.90;;;;;;5053384;28;20244;-70
2024/01/02 12:15:34;;;;;;;0.00;0.00;;;10.30;99.90;;;;;;5053384;28;20263;-71
2024/01/02 12:18:03;;;;;;;0.00;0.00;;;10.20;99.90;;;;;;5053176;28;20625;-70
2024/01/02 12:20:40;;;;;;;0.00;0.00;;;10.30;99.90;;;;;;5053376;28;20178;-70
2024/01/02 12:23:06;;;;;;;0.00;0.00;;;10.20;99.90;;;;;;5053216;28;20177;-70
2024/01/02 12:25:32;;;;;;;0.00;0.00;;;10.20;99.90;;;;;;5053237;28;20170;-70
2024/01/02 12:28:00;;;;;;;0.00;0.00;;;10.20;99.90;;;;;;5053062;28;20177;-70
2024/01/02 12:30:31;;;;;;;0.00;0.00;;;10.20;99.90;;;;;;5053039;28;20188;-70
2024/01/02 12:33:13;;;;;;;0.00;0.00;;;10.20;99.90;;;;;;5052887;28;20213;-70
2024/01/02 12:35:57;;;;;;;0.00;0.00;;;10.20;99.90;;;;;;5052886;28;20645;-70
2024/01/02 12:38:25;;;;;;;0.00;0.00;;;10.20;99.90;;;;;;5052909;28;20184;-71
2024/01/02 12:40:54;;;;;;;0.00;0.00;;;10.20;99.90;;;;;;5052669;28;20589;-70
2024/01/02 12:43:20;;;;;;;0.00;0.00;;;10.20;99.90;;;;;;5051966;28;20182;-72
2024/01/02 12:45:59;;;;;;;0.00;0.00;;;10.20;99.90;;;;;;5051434;28;20173;-71
2024/01/02 12:48:29;;;;;;;0.00;0.00;;;10.20;99.90;;;;;;5052814;28;20185;-70
2024/01/02 12:50:58;;;;;;;0.00;0.00;;;10.20;99.90;;;;;;5052615;28;20180;-69
2024/01/02 12:53:29;;;;;;;0.00;0.00;;;10.20;99.90;;;;;;5052583;28;20209;-70
2024/01/02 12:56:00;;;;;;;0.00;0.00;;;10.30;99.90;;;;;;5052451;28;20284;-71
2024/01/02 12:58:31;;;;;;;0.00;0.00;;;10.20;99.90;;;;;;5052625;28;20645;-71
2024/01/02 13:00:58;;;;;;;0.00;0.00;;;10.20;99.90;;;;;;5052448;28;20188;-70
2024/01/02 13:03:24;;;;;;;0.10;0.10;;;10.20;99.90;;;;;;5052322;28;20212;-71